createdAt,value
2022-12-14T00:01:48.931Z,-1.69
2022-12-14T00:11:46.783Z,-1.70
2022-12-14T00:21:46.057Z,-1.72
2022-12-14T00:31:48.831Z,-1.67
2022-12-14T00:41:46.433Z,-1.76
2022-12-14T00:51:46.470Z,-1.59
2022-12-14T01:01:46.879Z,-1.58
2022-12-14T01:11:46.915Z,-1.69
2022-12-14T01:21:47.165Z,-1.72
2022-12-14T01:31:48.684Z,-1.67
2022-12-14T01:41:48.611Z,-1.58
2022-12-14T01:51:47.642Z,-1.54
2022-12-14T02:01:48.349Z,-1.59
2022-12-14T02:11:47.978Z,-1.58
2022-12-14T02:21:48.267Z,-1.67
2022-12-14T02:31:48.951Z,-1.59
2022-12-14T02:41:48.662Z,-1.76
2022-12-14T02:51:48.706Z,-1.72
2022-12-14T03:01:49.190Z,-1.77
2022-12-14T03:11:49.126Z,-1.66
2022-12-14T03:21:49.378Z,-1.73
2022-12-14T03:31:49.727Z,-1.61
2022-12-14T03:41:49.861Z,-1.70
2022-12-14T03:51:49.904Z,-1.61
2022-12-14T04:01:50.302Z,-1.80
2022-12-14T04:11:50.229Z,-1.77
2022-12-14T04:21:50.507Z,-1.73
2022-12-14T04:31:50.800Z,-1.66
2022-12-14T04:41:50.862Z,-1.51
2022-12-14T04:51:51.089Z,-0.97
2022-12-14T05:01:51.454Z,-0.98
2022-12-14T05:11:54.343Z,-1.10
2022-12-14T05:21:51.908Z,-1.12
2022-12-14T05:31:51.942Z,-1.15
2022-12-14T05:41:53.211Z,-1.20
2022-12-14T05:51:52.439Z,-1.23
2022-12-14T06:01:52.808Z,-1.22
2022-12-14T06:11:52.843Z,-1.23
2022-12-14T06:21:56.194Z,-0.75
2022-12-14T06:31:53.218Z,-0.99
2022-12-14T06:41:53.493Z,-0.92
2022-12-14T06:51:53.533Z,-0.95
2022-12-14T07:01:53.964Z,-0.98
2022-12-14T07:11:53.950Z,-0.95
2022-12-14T07:21:54.024Z,-0.85
2022-12-14T07:31:54.061Z,-0.33
2022-12-14T07:41:54.399Z,-0.23
2022-12-14T07:51:54.444Z,-0.37
2022-12-14T08:01:56.373Z,-0.40
2022-12-14T08:11:54.849Z,-0.44
2022-12-14T08:21:55.137Z,-0.44
2022-12-14T08:31:55.236Z,-0.28
2022-12-14T08:41:55.320Z,0.90
2022-12-14T08:51:55.558Z,2.63
2022-12-14T09:01:56.050Z,2.99
2022-12-14T09:11:55.998Z,2.87
2022-12-14T09:21:56.301Z,2.54
2022-12-14T09:31:56.402Z,2.48
2022-12-14T09:42:00.785Z,2.60
2022-12-14T09:51:56.668Z,1.86
2022-12-14T10:11:58.060Z,1.84
2022-12-14T10:21:57.405Z,1.68
2022-12-14T10:31:57.508Z,1.60
2022-12-14T10:41:57.641Z,1.58
2022-12-14T10:51:57.669Z,1.51
2022-12-14T11:01:58.177Z,1.54
2022-12-14T11:11:58.013Z,1.95
2022-12-14T11:21:58.175Z,1.93
2022-12-14T11:31:58.212Z,3.17
2022-12-14T11:41:58.538Z,3.66
2022-12-14T11:51:58.566Z,3.47
2022-12-14T12:01:59.007Z,4.00
2022-12-14T12:11:59.068Z,3.78
2022-12-14T12:21:59.400Z,3.55
2022-12-14T12:32:00.087Z,3.32
2022-12-14T12:42:03.588Z,2.99
2022-12-14T12:52:00.613Z,2.52
2022-12-14T13:02:00.483Z,2.82
2022-12-14T13:11:59.764Z,2.71
2022-12-14T13:22:04.983Z,2.67
2022-12-14T13:32:01.172Z,2.74
2022-12-14T13:42:01.479Z,2.60
2022-12-14T13:52:00.507Z,2.49
2022-12-14T14:02:00.915Z,2.38
2022-12-14T14:12:00.970Z,2.27
2022-12-14T14:22:22.221Z,2.20
2022-12-14T14:32:02.478Z,2.17
2022-12-14T14:42:01.593Z,2.14
2022-12-14T14:52:03.646Z,2.14
2022-12-14T15:02:03.186Z,2.09
2022-12-14T15:12:01.920Z,2.23
2022-12-14T15:22:01.980Z,2.10
2022-12-14T15:32:02.309Z,2.14
2022-12-14T15:42:02.367Z,2.25
2022-12-14T15:52:02.662Z,2.20
2022-12-14T16:02:07.064Z,2.10
2022-12-14T16:12:03.771Z,1.98
2022-12-14T16:22:03.110Z,1.99
2022-12-14T16:32:03.214Z,1.88
2022-12-14T16:42:03.414Z,2.00
2022-12-14T16:52:08.041Z,1.91
2022-12-14T17:02:05.043Z,2.20
2022-12-14T17:12:04.056Z,2.52
2022-12-14T17:22:04.115Z,2.61
2022-12-14T17:32:04.522Z,2.82
2022-12-14T17:42:04.593Z,2.77
2022-12-14T17:52:05.057Z,2.59
2022-12-14T18:02:05.273Z,2.79
2022-12-14T18:22:06.265Z,2.59
2022-12-14T18:32:05.571Z,2.99
2022-12-14T18:42:08.888Z,2.93
2022-12-14T18:52:05.923Z,2.95
2022-12-14T19:02:06.340Z,2.69
2022-12-14T19:12:06.417Z,2.59
2022-12-14T19:22:06.719Z,2.74
2022-12-14T19:32:06.811Z,2.60
2022-12-14T19:42:07.022Z,2.64
2022-12-14T19:52:07.035Z,2.74
2022-12-14T20:02:08.872Z,2.46
2022-12-14T20:12:07.417Z,2.43
2022-12-14T20:22:07.632Z,2.41
2022-12-14T20:32:07.840Z,2.43
2022-12-14T20:42:07.832Z,2.36
2022-12-14T20:52:07.896Z,2.31
2022-12-14T21:02:08.382Z,2.30
2022-12-14T21:12:09.092Z,2.30
2022-12-14T21:22:08.463Z,2.28
2022-12-14T21:32:08.748Z,2.43
2022-12-14T21:42:08.840Z,2.41
2022-12-14T21:52:09.089Z,2.41
2022-12-14T22:02:09.519Z,2.61
2022-12-14T22:12:09.673Z,2.57
2022-12-14T22:22:09.780Z,2.31
2022-12-14T22:32:09.870Z,2.41
2022-12-14T22:42:10.035Z,2.35
2022-12-14T22:52:10.064Z,2.39
2022-12-14T23:02:10.546Z,2.45
2022-12-14T23:12:11.723Z,2.96
2022-12-14T23:22:10.794Z,2.66
2022-12-14T23:32:10.848Z,3.00
2022-12-14T23:42:11.152Z,3.08
2022-12-14T23:52:11.195Z,2.89
